Aegean Viii — SXKO — position and weather

sailwx.info

Track history (hours):
 
Tides and Currents Weather Stations Pressure Air Temp Water Temp Dewpoint Dewpoint Depression Visibility Wind Speed Wind Dir Waves Ship Positions

Aegean Viii

Last reported at 2015-Mar-02 22:17 UTC. Time now 2015-Mar-02 23:13 UTC.
Position N 38°02' E 023°32'.

Length 75 m; draft 4.5 m.

Type: Tanker. MMSI: 240732000.

Date/timePositionNaut miles runAvg speedWind from/ knotsBaromVisibWave heightAir tempDewpointWater temp
2015-Mar-02 22:17N 38°02' E 023°32'0 0.0
2015-Mar-02 20:32N 38°02' E 023°32'6 6.0
2015-Mar-02 19:34N 37°57' E 023°36'0 0.2
2015-Mar-02 18:33N 37°58' E 023°36'0 0.0
2015-Mar-02 17:33N 37°58' E 023°36'2 1.7
2015-Mar-02 16:33N 37°57' E 023°34'0 0.0
2015-Mar-02 15:34N 37°57' E 023°34'0 0.0
2015-Mar-02 14:34N 37°57' E 023°34'0 0.1
2015-Mar-02 13:34N 37°57' E 023°34'0 0.0
2015-Mar-02 12:34N 37°57' E 023°34'0 0.3
2015-Mar-02 11:34N 37°57' E 023°34'0 0.4
2015-Mar-02 10:34N 37°57' E 023°34'0 0.0
2015-Mar-02 09:33N 37°57' E 023°34'0 0.0
2015-Mar-02 08:34N 37°57' E 023°34'0 0.0
2015-Mar-02 07:33N 37°57' E 023°34'6 5.6
2015-Mar-02 06:34N 38°02' E 023°32'0 0.0
2015-Mar-02 05:33N 38°02' E 023°32'0 0.0
2015-Mar-02 04:34N 38°02' E 023°32'0 0.0
2015-Mar-01 07:32N 38°02' E 023°32'0 0.2
2015-Mar-01 06:32N 38°02' E 023°32'3 3.2
2015-Mar-01 05:33N 38°02' E 023°36'0 0.0
2015-Mar-01 04:33N 38°02' E 023°36'0 0.0
2015-Mar-01 03:33N 38°02' E 023°36'0 0.0
2015-Mar-01 02:33N 38°02' E 023°36'5 4.5
2015-Mar-01 01:33N 38°01' E 023°30'9 7.9
2015-Mar-01 00:24N 37°53' E 023°24'7 8.8
2015-Feb-28 23:33N 37°55' E 023°33'4 3.7
2015-Feb-28 22:33N 37°58' E 023°36'0 0.0
2015-Feb-28 21:33N 37°58' E 023°36'0 0.0
2015-Feb-28 20:33N 37°58' E 023°36'0 0.3
2015-Feb-28 19:33N 37°57' E 023°36'2 1.6
2015-Feb-28 18:33N 37°57' E 023°34'0 0.0
2015-Feb-28 17:33N 37°57' E 023°34'0 0.0
2015-Feb-28 16:34N 37°57' E 023°34'2 2.1
2015-Feb-28 15:33N 37°59' E 023°33'3 3.2
2015-Feb-28 14:33N 38°02' E 023°32'0 0.0
2015-Feb-28 13:34N 38°02' E 023°32'0 0.0
2015-Feb-28 12:33N 38°02' E 023°32'0 0.0
2015-Feb-28 11:33N 38°02' E 023°32'0 0.0
2015-Feb-27 12:13N 38°02' E 023°32'0 0.0
2015-Feb-27 11:33N 38°02' E 023°32'0 0.4
2015-Feb-27 10:33N 38°02' E 023°32'0 0.0
2015-Feb-27 09:33N 38°02' E 023°32'0 0.0
2015-Feb-27 08:32N 38°02' E 023°32'0 0.1
2015-Feb-27 07:33N 38°02' E 023°32'0 0.4
2015-Feb-27 06:33N 38°02' E 023°32'0 0.0
2015-Feb-27 05:33N 38°02' E 023°32'0 0.0
2015-Feb-26 18:33N 38°02' E 023°32'2 2.2
2015-Feb-26 17:32N 38°00' E 023°33'4 3.8
2015-Feb-26 16:33N 37°58' E 023°36'0 0.0
2015-Feb-26 15:33N 37°58' E 023°36'0 0.0
2015-Feb-26 14:33N 37°58' E 023°36'3 2.9
2015-Feb-26 13:33N 37°55' E 023°34'5 5.4
2015-Feb-26 12:33N 37°51' E 023°31'0 0.1
2015-Feb-26 11:33N 37°51' E 023°31'0 0.0
2015-Feb-26 10:33N 37°51' E 023°31'0 0.0
2015-Feb-26 09:33N 37°51' E 023°31'1 0.3
2015-Feb-26 06:18N 37°52' E 023°31'6 7.7
2015-Feb-26 05:33N 37°57' E 023°34'5 1.1
2015-Feb-26 01:16N 38°02' E 023°36'0 0.0
2015-Feb-26 00:33N 38°02' E 023°36'0 0.0
2015-Feb-25 23:33N 38°02' E 023°36'0 0.0
2015-Feb-25 22:33N 38°02' E 023°36'0 0.0
2015-Feb-25 21:33N 38°02' E 023°36'0 0.0
2015-Feb-25 20:33N 38°02' E 023°36'1 0.9
2015-Feb-25 19:33N 38°01' E 023°35'0 0.0
2015-Feb-25 18:33N 38°01' E 023°35'0 0.0
2015-Feb-25 17:33N 38°01' E 023°35'0 0.0
2015-Feb-25 16:33N 38°02' E 023°35'0 0.0
2015-Feb-25 15:33N 38°02' E 023°35'0 0.0
2015-Feb-25 14:33N 38°02' E 023°34'0 0.0
2015-Feb-25 13:33N 38°02' E 023°35'0 0.0
2015-Feb-25 12:33N 38°02' E 023°35'0 0.0
2015-Feb-25 11:33N 38°01' E 023°35'0 0.0
2015-Feb-25 10:27N 38°01' E 023°35'4 4.3
2015-Feb-25 09:33N 37°58' E 023°33'3 2.8
2015-Feb-25 08:34N 37°58' E 023°36'0 0.0
2015-Feb-25 07:33N 37°58' E 023°36'1 0.5
2015-Feb-25 06:33N 37°57' E 023°36'5 4.6
2015-Feb-25 05:33N 38°02' E 023°36'0 0.1
2015-Feb-25 04:32N 38°02' E 023°36'0 0.0
2015-Feb-25 03:33N 38°02' E 023°36'0 0.0
2015-Feb-25 02:23N 38°02' E 023°36'0 0.0
2015-Feb-25 00:05N 38°02' E 023°36'1 1.5
2015-Feb-24 23:30N 38°02' E 023°35'0 0.0
2015-Feb-24 22:32N 38°02' E 023°35'0 0.0
2015-Feb-24 21:32N 38°02' E 023°35'0 0.0
2015-Feb-24 20:32N 38°02' E 023°35'0 0.0
2015-Feb-24 19:33N 38°02' E 023°35'0 0.1
2015-Feb-24 18:28N 38°02' E 023°35'0 0.0
2015-Feb-24 17:32N 38°02' E 023°35'0 0.0
2015-Feb-24 16:24N 38°02' E 023°35'0 0.0
2015-Feb-24 15:12N 38°02' E 023°35'0 0.0
2015-Feb-24 14:33N 38°02' E 023°35'0 0.0
2015-Feb-24 13:30N 38°02' E 023°35'0 0.0
2015-Feb-24 12:33N 38°02' E 023°35'0 0.0
2015-Feb-24 11:31N 38°02' E 023°35'0 0.0
2015-Feb-24 10:33N 38°02' E 023°35'2 2.2
2015-Feb-24 09:33N 38°02' E 023°32'0 0.0
2015-Feb-24 08:33N 38°02' E 023°32'0 0.0
2015-Feb-24 07:33N 38°02' E 023°32'0 0.0
2015-Feb-24 06:33N 38°02' E 023°32'0 0.0
2015-Feb-24 05:33N 38°02' E 023°32'0 0.0
2015-Feb-22 10:05N 38°02' E 023°32'0 0.1
2015-Feb-22 09:33N 38°02' E 023°32'6 5.6
2015-Feb-22 08:33N 37°57' E 023°35'0 0.4
2015-Feb-22 07:33N 37°57' E 023°35'1 1.0
2015-Feb-22 06:33N 37°58' E 023°37'1 0.9
2015-Feb-22 05:33N 37°57' E 023°36'1 1.2
2015-Feb-22 04:32N 37°57' E 023°34'0 0.0
2015-Feb-22 03:33N 37°57' E 023°34'0 0.0
2015-Feb-22 02:33N 37°57' E 023°34'0 0.0
2015-Feb-22 01:33N 37°57' E 023°34'0 0.0
2015-Feb-22 00:34N 37°57' E 023°34'0 0.1
2015-Feb-21 23:34N 37°57' E 023°34'3 3.0
2015-Feb-21 22:34N 37°54' E 023°34'0 0.1
2015-Feb-21 21:33N 37°54' E 023°34'0 0.3
2015-Feb-21 20:33N 37°54' E 023°34'2 1.6
2015-Feb-21 19:33N 37°56' E 023°34'0 0.0
2015-Feb-21 18:33N 37°56' E 023°34'0 0.0
2015-Feb-21 17:33N 37°56' E 023°34'0 0.0
2015-Feb-21 16:33N 37°56' E 023°34'0 0.0
2015-Feb-21 15:33N 37°56' E 023°34'0 0.0
2015-Feb-21 14:33N 37°56' E 023°34'0 0.0
2015-Feb-21 13:33N 37°56' E 023°34'0 0.0
2015-Feb-21 12:33N 37°56' E 023°34'5 4.8
2015-Feb-21 11:34N 37°52' E 023°29'0 0.0
2015-Feb-21 10:33N 37°52' E 023°29'0 0.0
2015-Feb-21 09:33N 37°52' E 023°29'0 0.0
2015-Feb-21 08:34N 37°52' E 023°29'0 0.0
2015-Feb-21 07:34N 37°52' E 023°29'3 2.6
2015-Feb-21 06:34N 37°54' E 023°32'7 7.5
2015-Feb-21 05:34N 38°01' E 023°34'1 0.5
2015-Feb-21 03:10N 38°02' E 023°36'0 0.0
2015-Feb-21 02:16N 38°02' E 023°36'0 0.0
2015-Feb-21 01:25N 38°02' E 023°36'0 0.0
2015-Feb-21 00:26N 38°02' E 023°36'0 0.0
2015-Feb-20 23:27N 38°02' E 023°36'0 0.0
2015-Feb-20 22:24N 38°02' E 023°36'  
Track history (hours):
 
Tides and Currents Weather Stations Pressure Air Temp Water Temp Dewpoint Dewpoint Depression Visibility Wind Speed Wind Dir Waves Ship Positions

Aegean Viii

Last reported at 2015-Mar-02 22:17 UTC. Time now 2015-Mar-02 23:13 UTC.
Position N 38°02' E 023°32'.

Length 75 m; draft 4.5 m.

Type: Tanker. MMSI: 240732000.

Date/timePositionNaut miles runAvg speedWind from/ knotsBaromVisibWave heightAir tempDewpointWater temp
2015-Mar-02 22:17N 38°02' E 023°32'0 0.0
2015-Mar-02 20:32N 38°02' E 023°32'6 6.0
2015-Mar-02 19:34N 37°57' E 023°36'0 0.2
2015-Mar-02 18:33N 37°58' E 023°36'0 0.0
2015-Mar-02 17:33N 37°58' E 023°36'2 1.7
2015-Mar-02 16:33N 37°57' E 023°34'0 0.0
2015-Mar-02 15:34N 37°57' E 023°34'0 0.0
2015-Mar-02 14:34N 37°57' E 023°34'0 0.1
2015-Mar-02 13:34N 37°57' E 023°34'0 0.0
2015-Mar-02 12:34N 37°57' E 023°34'0 0.3
2015-Mar-02 11:34N 37°57' E 023°34'0 0.4
2015-Mar-02 10:34N 37°57' E 023°34'0 0.0
2015-Mar-02 09:33N 37°57' E 023°34'0 0.0
2015-Mar-02 08:34N 37°57' E 023°34'0 0.0
2015-Mar-02 07:33N 37°57' E 023°34'6 5.6
2015-Mar-02 06:34N 38°02' E 023°32'0 0.0
2015-Mar-02 05:33N 38°02' E 023°32'0 0.0
2015-Mar-02 04:34N 38°02' E 023°32'0 0.0
2015-Mar-01 07:32N 38°02' E 023°32'0 0.2
2015-Mar-01 06:32N 38°02' E 023°32'3 3.2
2015-Mar-01 05:33N 38°02' E 023°36'0 0.0
2015-Mar-01 04:33N 38°02' E 023°36'0 0.0
2015-Mar-01 03:33N 38°02' E 023°36'0 0.0
2015-Mar-01 02:33N 38°02' E 023°36'5 4.5
2015-Mar-01 01:33N 38°01' E 023°30'9 7.9
2015-Mar-01 00:24N 37°53' E 023°24'7 8.8
2015-Feb-28 23:33N 37°55' E 023°33'4 3.7
2015-Feb-28 22:33N 37°58' E 023°36'0 0.0
2015-Feb-28 21:33N 37°58' E 023°36'0 0.0
2015-Feb-28 20:33N 37°58' E 023°36'0 0.3
2015-Feb-28 19:33N 37°57' E 023°36'2 1.6
2015-Feb-28 18:33N 37°57' E 023°34'0 0.0
2015-Feb-28 17:33N 37°57' E 023°34'0 0.0
2015-Feb-28 16:34N 37°57' E 023°34'2 2.1
2015-Feb-28 15:33N 37°59' E 023°33'3 3.2
2015-Feb-28 14:33N 38°02' E 023°32'0 0.0
2015-Feb-28 13:34N 38°02' E 023°32'0 0.0
2015-Feb-28 12:33N 38°02' E 023°32'0 0.0
2015-Feb-28 11:33N 38°02' E 023°32'0 0.0
2015-Feb-27 12:13N 38°02' E 023°32'0 0.0
2015-Feb-27 11:33N 38°02' E 023°32'0 0.4
2015-Feb-27 10:33N 38°02' E 023°32'0 0.0
2015-Feb-27 09:33N 38°02' E 023°32'0 0.0
2015-Feb-27 08:32N 38°02' E 023°32'0 0.1
2015-Feb-27 07:33N 38°02' E 023°32'0 0.4
2015-Feb-27 06:33N 38°02' E 023°32'0 0.0
2015-Feb-27 05:33N 38°02' E 023°32'0 0.0
2015-Feb-26 18:33N 38°02' E 023°32'2 2.2
2015-Feb-26 17:32N 38°00' E 023°33'4 3.8
2015-Feb-26 16:33N 37°58' E 023°36'0 0.0
2015-Feb-26 15:33N 37°58' E 023°36'0 0.0
2015-Feb-26 14:33N 37°58' E 023°36'3 2.9
2015-Feb-26 13:33N 37°55' E 023°34'5 5.4
2015-Feb-26 12:33N 37°51' E 023°31'0 0.1
2015-Feb-26 11:33N 37°51' E 023°31'0 0.0
2015-Feb-26 10:33N 37°51' E 023°31'0 0.0
2015-Feb-26 09:33N 37°51' E 023°31'1 0.3
2015-Feb-26 06:18N 37°52' E 023°31'6 7.7
2015-Feb-26 05:33N 37°57' E 023°34'5 1.1
2015-Feb-26 01:16N 38°02' E 023°36'0 0.0
2015-Feb-26 00:33N 38°02' E 023°36'0 0.0
2015-Feb-25 23:33N 38°02' E 023°36'0 0.0
2015-Feb-25 22:33N 38°02' E 023°36'0 0.0
2015-Feb-25 21:33N 38°02' E 023°36'0 0.0
2015-Feb-25 20:33N 38°02' E 023°36'1 0.9
2015-Feb-25 19:33N 38°01' E 023°35'0 0.0
2015-Feb-25 18:33N 38°01' E 023°35'0 0.0
2015-Feb-25 17:33N 38°01' E 023°35'0 0.0
2015-Feb-25 16:33N 38°02' E 023°35'0 0.0
2015-Feb-25 15:33N 38°02' E 023°35'0 0.0
2015-Feb-25 14:33N 38°02' E 023°34'0 0.0
2015-Feb-25 13:33N 38°02' E 023°35'0 0.0
2015-Feb-25 12:33N 38°02' E 023°35'0 0.0
2015-Feb-25 11:33N 38°01' E 023°35'0 0.0
2015-Feb-25 10:27N 38°01' E 023°35'4 4.3
2015-Feb-25 09:33N 37°58' E 023°33'3 2.8
2015-Feb-25 08:34N 37°58' E 023°36'0 0.0
2015-Feb-25 07:33N 37°58' E 023°36'1 0.5
2015-Feb-25 06:33N 37°57' E 023°36'5 4.6
2015-Feb-25 05:33N 38°02' E 023°36'0 0.1
2015-Feb-25 04:32N 38°02' E 023°36'0 0.0
2015-Feb-25 03:33N 38°02' E 023°36'0 0.0
2015-Feb-25 02:23N 38°02' E 023°36'0 0.0
2015-Feb-25 00:05N 38°02' E 023°36'1 1.5
2015-Feb-24 23:30N 38°02' E 023°35'0 0.0
2015-Feb-24 22:32N 38°02' E 023°35'0 0.0
2015-Feb-24 21:32N 38°02' E 023°35'0 0.0
2015-Feb-24 20:32N 38°02' E 023°35'0 0.0
2015-Feb-24 19:33N 38°02' E 023°35'0 0.1
2015-Feb-24 18:28N 38°02' E 023°35'0 0.0
2015-Feb-24 17:32N 38°02' E 023°35'0 0.0
2015-Feb-24 16:24N 38°02' E 023°35'0 0.0
2015-Feb-24 15:12N 38°02' E 023°35'0 0.0
2015-Feb-24 14:33N 38°02' E 023°35'0 0.0
2015-Feb-24 13:30N 38°02' E 023°35'0 0.0
2015-Feb-24 12:33N 38°02' E 023°35'0 0.0
2015-Feb-24 11:31N 38°02' E 023°35'0 0.0
2015-Feb-24 10:33N 38°02' E 023°35'2 2.2
2015-Feb-24 09:33N 38°02' E 023°32'0 0.0
2015-Feb-24 08:33N 38°02' E 023°32'0 0.0
2015-Feb-24 07:33N 38°02' E 023°32'0 0.0
2015-Feb-24 06:33N 38°02' E 023°32'0 0.0
2015-Feb-24 05:33N 38°02' E 023°32'0 0.0
2015-Feb-22 10:05N 38°02' E 023°32'0 0.1
2015-Feb-22 09:33N 38°02' E 023°32'6 5.6
2015-Feb-22 08:33N 37°57' E 023°35'0 0.4
2015-Feb-22 07:33N 37°57' E 023°35'1 1.0
2015-Feb-22 06:33N 37°58' E 023°37'1 0.9
2015-Feb-22 05:33N 37°57' E 023°36'1 1.2
2015-Feb-22 04:32N 37°57' E 023°34'0 0.0
2015-Feb-22 03:33N 37°57' E 023°34'0 0.0
2015-Feb-22 02:33N 37°57' E 023°34'0 0.0
2015-Feb-22 01:33N 37°57' E 023°34'0 0.0
2015-Feb-22 00:34N 37°57' E 023°34'0 0.1
2015-Feb-21 23:34N 37°57' E 023°34'3 3.0
2015-Feb-21 22:34N 37°54' E 023°34'0 0.1
2015-Feb-21 21:33N 37°54' E 023°34'0 0.3
2015-Feb-21 20:33N 37°54' E 023°34'2 1.6
2015-Feb-21 19:33N 37°56' E 023°34'0 0.0
2015-Feb-21 18:33N 37°56' E 023°34'0 0.0
2015-Feb-21 17:33N 37°56' E 023°34'0 0.0
2015-Feb-21 16:33N 37°56' E 023°34'0 0.0
2015-Feb-21 15:33N 37°56' E 023°34'0 0.0
2015-Feb-21 14:33N 37°56' E 023°34'0 0.0
2015-Feb-21 13:33N 37°56' E 023°34'0 0.0
2015-Feb-21 12:33N 37°56' E 023°34'5 4.8
2015-Feb-21 11:34N 37°52' E 023°29'0 0.0
2015-Feb-21 10:33N 37°52' E 023°29'0 0.0
2015-Feb-21 09:33N 37°52' E 023°29'0 0.0
2015-Feb-21 08:34N 37°52' E 023°29'0 0.0
2015-Feb-21 07:34N 37°52' E 023°29'3 2.6
2015-Feb-21 06:34N 37°54' E 023°32'7 7.5
2015-Feb-21 05:34N 38°01' E 023°34'1 0.5
2015-Feb-21 03:10N 38°02' E 023°36'0 0.0
2015-Feb-21 02:16N 38°02' E 023°36'0 0.0
2015-Feb-21 01:25N 38°02' E 023°36'0 0.0
2015-Feb-21 00:26N 38°02' E 023°36'0 0.0
2015-Feb-20 23:27N 38°02' E 023°36'0 0.0
2015-Feb-20 22:24N 38°02' E 023°36'  

Dump ship's entire track history